Time;durP1;ratioP1;P1;durP2;ratioP2;P2;SDS_P1;SDS_P2;PMS_P1;PMS_P2;Temp;Humidity;BMP_temperature;BMP_pressure;BME280_temperature;BME280_humidity;BME280_pressure;Samples;Min_cycle;Max_cycle;Signal;HPM_P1;HPM_P2
2023/09/03 00:00:22;;;;;;;21.15;17.25;;;;;;;15.37;100.00;102651.91;5009938;28;20068;-58
2023/09/03 00:02:48;;;;;;;21.02;17.63;;;;;;;15.39;100.00;102658.06;5012399;28;20034;-60
2023/09/03 00:05:13;;;;;;;24.83;19.33;;;;;;;15.37;100.00;102654.56;5009793;28;20060;-59
2023/09/03 00:07:39;;;;;;;21.27;17.83;;;;;;;15.34;100.00;102658.19;5009337;28;20021;-59
2023/09/03 00:10:04;;;;;;;22.77;18.25;;;;;;;15.30;100.00;102656.53;5010723;28;20026;-57
2023/09/03 00:12:30;;;;;;;22.70;18.27;;;;;;;15.27;100.00;102659.25;5010837;28;20499;-58
2023/09/03 00:14:55;;;;;;;24.77;19.00;;;;;;;15.23;100.00;102660.25;5014924;28;20037;-60
2023/09/03 00:17:21;;;;;;;20.45;17.52;;;;;;;15.19;100.00;102664.75;5011384;28;20072;-61
2023/09/03 00:19:46;;;;;;;21.27;17.33;;;;;;;15.15;100.00;102663.94;5010541;28;20480;-59
2023/09/03 00:22:12;;;;;;;22.73;18.98;;;;;;;15.11;100.00;102662.25;5011096;28;20033;-59
2023/09/03 00:24:37;;;;;;;25.58;19.80;;;;;;;15.08;100.00;102658.81;5011006;28;20480;-60
2023/09/03 00:27:03;;;;;;;23.50;18.70;;;;;;;15.06;100.00;102658.88;5017503;28;20037;-58
2023/09/03 00:29:29;;;;;;;25.98;19.50;;;;;;;15.09;100.00;102645.50;5009980;28;20018;-59
2023/09/03 00:31:55;;;;;;;24.65;19.20;;;;;;;15.11;100.00;102642.81;5010042;28;20076;-59
2023/09/03 00:34:20;;;;;;;26.45;20.73;;;;;;;15.11;100.00;102638.38;5010802;28;20540;-59
2023/09/03 00:36:45;;;;;;;23.85;18.73;;;;;;;15.12;100.00;102641.91;5016175;28;20112;-60
2023/09/03 00:39:11;;;;;;;23.75;18.45;;;;;;;15.08;100.00;102637.59;5030763;28;20104;-59
2023/09/03 00:41:36;;;;;;;22.45;17.80;;;;;;;15.03;100.00;102640.34;5030111;28;20041;-59
2023/09/03 00:44:03;;;;;;;27.88;19.65;;;;;;;14.98;100.00;102639.56;5029334;28;20507;-59
2023/09/03 00:46:28;;;;;;;24.02;18.27;;;;;;;14.94;100.00;102633.47;5030360;28;20026;-56
2023/09/03 00:48:54;;;;;;;25.13;19.30;;;;;;;14.93;100.00;102631.72;5027670;28;20051;-58
2023/09/03 00:51:20;;;;;;;25.48;18.80;;;;;;;14.89;100.00;102638.91;5009879;28;20053;-58
2023/09/03 00:53:48;;;;;;;24.95;18.83;;;;;;;14.87;100.00;102640.69;5007931;28;20105;-59
2023/09/03 00:56:14;;;;;;;29.48;20.73;;;;;;;14.89;100.00;102643.31;5008418;28;20034;-59
2023/09/03 00:58:40;;;;;;;27.95;21.23;;;;;;;14.86;100.00;102646.94;5019265;28;20354;-57
2023/09/03 01:01:06;;;;;;;27.92;21.60;;;;;;;14.84;100.00;102643.41;5027286;28;20033;-59
2023/09/03 01:03:32;;;;;;;25.58;19.67;;;;;;;14.83;100.00;102640.81;5028518;28;20040;-59
2023/09/03 01:05:57;;;;;;;30.65;21.33;;;;;;;14.80;100.00;102631.13;5029130;28;20025;-58
2023/09/03 01:08:23;;;;;;;27.50;20.33;;;;;;;14.82;100.00;102626.69;5029423;28;20085;-58
2023/09/03 01:11:03;;;;;;;28.88;21.30;;;;;;;14.82;100.00;102617.84;5025620;28;20357;-59
2023/09/03 01:14:03;;;;;;;27.60;20.33;;;;;;;14.80;100.00;102619.63;5078043;23;20073;-58
2023/09/03 01:16:34;;;;;;;23.85;18.58;;;;;;;14.82;100.00;102624.03;4987611;28;20185;-67
2023/09/03 01:19:17;;;;;;;28.98;19.70;;;;;;;14.82;100.00;102626.69;4988822;28;20617;-69
2023/09/03 01:21:57;;;;;;;25.92;20.02;;;;;;;14.79;100.00;102629.41;5003939;28;20030;-62
2023/09/03 01:24:47;;;;;;;25.92;19.27;;;;;;;14.76;100.00;102634.75;5004807;28;20105;-55
2023/09/03 01:27:22;;;;;;;26.30;18.08;;;;;;;14.71;100.00;102647.22;5008407;28;20076;-65
2023/09/03 01:29:48;;;;;;;26.85;18.48;;;;;;;14.66;100.00;102650.00;5004974;28;20128;-64
2023/09/03 01:32:14;;;;;;;22.10;18.73;;;;;;;14.64;100.00;102642.09;5006744;28;20558;-62
2023/09/03 01:34:40;;;;;;;28.75;18.98;;;;;;;14.61;100.00;102639.50;5007633;28;20030;-64
2023/09/03 01:37:07;;;;;;;25.20;18.48;;;;;;;14.60;100.00;102652.78;5008528;28;20018;-57
2023/09/03 01:39:32;;;;;;;25.95;19.88;;;;;;;14.61;100.00;102652.75;5006748;28;20469;-65
2023/09/03 01:41:58;;;;;;;29.80;19.75;;;;;;;14.61;100.00;102651.88;5008026;28;20030;-61
2023/09/03 01:44:23;;;;;;;25.08;18.83;;;;;;;14.61;100.00;102663.38;5007053;28;20030;-60
2023/09/03 01:46:50;;;;;;;23.77;17.25;;;;;;;14.60;100.00;102666.91;5007503;28;20036;-64
2023/09/03 01:49:40;;;;;;;22.17;17.30;;;;;;;14.60;100.00;102674.88;5006796;28;20025;-65
2023/09/03 01:52:08;;;;;;;27.75;19.73;;;;;;;14.61;100.00;102675.75;5007895;28;20045;-65
2023/09/03 01:54:39;;;;;;;28.80;20.27;;;;;;;14.57;100.00;102682.88;5006875;28;20022;-64
2023/09/03 01:57:16;;;;;;;30.67;19.90;;;;;;;14.58;100.00;102689.09;5008018;28;20022;-67
2023/09/03 01:59:43;;;;;;;30.65;20.27;;;;;;;14.60;100.00;102687.28;5007387;28;20025;-62
2023/09/03 02:02:10;;;;;;;27.30;18.98;;;;;;;14.61;100.00;102689.91;5006746;28;20038;-60
2023/09/03 02:04:35;;;;;;;26.67;19.15;;;;;;;14.65;100.00;102686.28;5005504;28;20030;-62
2023/09/03 02:07:01;;;;;;;25.27;19.00;;;;;;;14.68;100.00;102685.31;5007120;28;20056;-55
2023/09/03 02:09:26;;;;;;;24.38;18.00;;;;;;;14.70;100.00;102682.63;5007686;28;20072;-66
2023/09/03 02:11:51;;;;;;;26.88;18.80;;;;;;;14.74;100.00;102679.00;5008607;28;20164;-62
2023/09/03 02:14:17;;;;;;;27.02;18.35;;;;;;;14.76;100.00;102666.59;5006307;28;20037;-66
2023/09/03 02:16:42;;;;;;;27.77;18.20;;;;;;;14.71;100.00;102668.44;5008410;28;20029;-63
2023/09/03 02:19:08;;;;;;;25.15;18.35;;;;;;;14.70;100.00;102667.59;5008126;28;20065;-64
2023/09/03 02:21:33;;;;;;;24.20;17.15;;;;;;;14.66;100.00;102668.59;5008167;28;20022;-67
2023/09/03 02:23:58;;;;;;;24.02;16.83;;;;;;;14.66;100.00;102661.47;5008724;28;20117;-66
2023/09/03 02:26:24;;;;;;;21.70;16.85;;;;;;;14.62;100.00;102667.75;5006376;28;20072;-61
2023/09/03 02:28:49;;;;;;;24.10;16.40;;;;;;;14.57;100.00;102659.00;5007952;28;20436;-66
2023/09/03 02:31:14;;;;;;;22.77;17.30;;;;;;;14.56;100.00;102656.41;5007630;28;20064;-64
2023/09/03 02:33:40;;;;;;;25.42;16.95;;;;;;;14.50;100.00;102647.69;5007723;28;20456;-66
2023/09/03 02:36:05;;;;;;;22.55;16.50;;;;;;;14.48;100.00;102641.53;5008028;28;20080;-60
2023/09/03 02:38:31;;;;;;;24.85;16.90;;;;;;;14.48;100.00;102622.09;5004989;28;20022;-63
2023/09/03 02:40:56;;;;;;;21.85;16.13;;;;;;;14.50;100.00;102618.50;5008520;28;20030;-67
2023/09/03 02:43:21;;;;;;;24.95;16.45;;;;;;;14.49;100.00;102619.41;5005260;28;20026;-65
2023/09/03 02:45:47;;;;;;;23.33;16.92;;;;;;;14.55;100.00;102622.81;5007561;28;20055;-63
2023/09/03 02:48:12;;;;;;;22.38;15.07;;;;;;;14.57;100.00;102624.53;5004897;28;20034;-65
2023/09/03 02:50:38;;;;;;;20.88;15.57;;;;;;;14.56;100.00;102628.09;4987820;28;20027;-65
2023/09/03 02:53:06;;;;;;;24.20;15.60;;;;;;;14.56;100.00;102624.56;4988123;28;20026;-65
2023/09/03 02:55:32;;;;;;;23.77;16.25;;;;;;;14.58;100.00;102636.03;4992889;28;20558;-58
2023/09/03 02:57:58;;;;;;;21.42;14.68;;;;;;;14.53;100.00;102638.78;5011521;28;20129;-66
2023/09/03 03:00:24;;;;;;;23.05;16.08;;;;;;;14.51;100.00;102646.75;5010557;28;20037;-63
2023/09/03 03:02:50;;;;;;;25.13;16.23;;;;;;;14.48;100.00;102640.66;5010995;28;20109;-63
2023/09/03 03:05:15;;;;;;;24.25;15.35;;;;;;;14.47;100.00;102637.13;5012188;28;20021;-65
2023/09/03 03:07:41;;;;;;;24.60;15.75;;;;;;;14.46;100.00;102645.13;5009333;28;20468;-66
2023/09/03 03:10:07;;;;;;;24.90;16.60;;;;;;;14.47;100.00;102652.16;5002697;28;20472;-60
2023/09/03 03:12:33;;;;;;;21.13;15.30;;;;;;;14.44;100.00;102666.38;5009125;28;20021;-66
2023/09/03 03:14:58;;;;;;;24.10;15.93;;;;;;;14.54;100.00;102677.66;5009533;28;20048;-58
2023/09/03 03:17:23;;;;;;;25.08;16.92;;;;;;;14.56;100.00;102686.47;5011451;28;20030;-62
2023/09/03 03:19:50;;;;;;;25.65;16.13;;;;;;;14.51;100.00;102688.34;5009124;28;20026;-65
2023/09/03 03:22:15;;;;;;;24.88;15.13;;;;;;;14.49;100.00;102695.44;5011248;28;20033;-62
2023/09/03 03:24:40;;;;;;;21.83;15.43;;;;;;;14.47;100.00;102700.78;5010720;28;20041;-64
2023/09/03 03:27:06;;;;;;;25.42;16.05;;;;;;;14.46;100.00;102708.78;5010512;28;20106;-67
2023/09/03 03:29:32;;;;;;;22.42;16.20;;;;;;;14.42;100.00;102700.00;5011015;28;20105;-65
2023/09/03 03:31:58;;;;;;;21.95;14.80;;;;;;;14.40;100.00;102696.53;5010136;28;20026;-65
2023/09/03 03:34:25;;;;;;;24.17;16.48;;;;;;;14.42;100.00;102680.56;5011414;28;20022;-63
2023/09/03 03:36:51;;;;;;;23.80;16.20;;;;;;;14.38;100.00;102682.41;5008782;28;20041;-66
2023/09/03 03:39:16;;;;;;;22.98;15.20;;;;;;;14.35;100.00;102678.03;5025568;28;20026;-65
2023/09/03 03:41:42;;;;;;;23.90;16.40;;;;;;;14.31;100.00;102681.66;5009816;28;20095;-65
2023/09/03 03:44:07;;;;;;;23.52;15.98;;;;;;;14.33;100.00;102685.16;5010364;28;20083;-67
2023/09/03 03:46:32;;;;;;;23.70;15.77;;;;;;;14.36;100.00;102687.75;5011160;28;20055;-63
2023/09/03 03:48:59;;;;;;;22.75;15.57;;;;;;;14.34;100.00;102691.34;5009317;28;20029;-66
2023/09/03 03:51:24;;;;;;;28.65;16.60;;;;;;;14.26;100.00;102689.72;5010771;28;20527;-65
2023/09/03 03:53:50;;;;;;;20.83;15.15;;;;;;;14.23;100.00;102696.84;5008463;28;20113;-64
2023/09/03 03:56:15;;;;;;;20.60;14.68;;;;;;;14.16;100.00;102693.44;5010779;28;20540;-62
2023/09/03 03:58:42;;;;;;;21.95;15.23;;;;;;;14.11;100.00;102697.94;5009143;28;20113;-66
2023/09/03 04:01:11;;;;;;;19.85;14.55;;;;;;;14.10;100.00;102693.56;5010584;28;20049;-61
2023/09/03 04:03:36;;;;;;;;;;;;;;;14.13;100.00;102690.84;5010807;28;20036;-62
2023/09/03 04:06:02;;;;;;;23.35;16.30;;;;;;;14.10;100.00;102688.25;5008573;28;20315;-66
2023/09/03 04:08:30;;;;;;;23.30;15.77;;;;;;;14.09;100.00;102689.19;5010326;28;20172;-62
2023/09/03 04:10:59;;;;;;;21.45;15.77;;;;;;;14.07;100.00;102697.16;5009706;28;20033;-63
2023/09/03 04:13:26;;;;;;;24.65;16.63;;;;;;;14.08;100.00;102701.53;5008022;28;20500;-63
2023/09/03 04:15:52;;;;;;;20.75;14.55;;;;;;;14.08;100.00;102706.84;5011449;28;20108;-65
2023/09/03 04:18:17;;;;;;;24.05;17.02;;;;;;;14.08;100.00;102698.91;5010162;28;20109;-61
2023/09/03 04:20:43;;;;;;;26.83;17.63;;;;;;;14.03;100.00;102690.16;5009691;28;20036;-66
2023/09/03 04:23:08;;;;;;;27.48;17.75;;;;;;;14.04;100.00;102689.25;5011019;28;20030;-66
2023/09/03 04:25:33;;;;;;;28.23;16.90;;;;;;;14.07;100.00;102685.66;5008367;28;20068;-63
2023/09/03 04:27:59;;;;;;;25.00;17.23;;;;;;;14.11;100.00;102690.88;5009856;28;20029;-56
2023/09/03 04:30:24;;;;;;;26.23;18.48;;;;;;;14.12;100.00;102697.94;5008641;28;20575;-63
2023/09/03 04:32:49;;;;;;;22.60;16.35;;;;;;;14.12;100.00;102702.38;5009891;28;20025;-61
2023/09/03 04:35:15;;;;;;;24.73;16.83;;;;;;;14.13;100.00;102702.34;5008288;28;20076;-65
2023/09/03 04:37:40;;;;;;;22.65;15.57;;;;;;;14.17;100.00;102699.63;5009414;28;20129;-61
2023/09/03 04:40:08;;;;;;;21.80;15.85;;;;;;;14.19;100.00;102698.69;5009641;28;20393;-64
2023/09/03 04:42:34;;;;;;;23.63;16.03;;;;;;;14.24;100.00;102699.47;5008517;28;20699;-66
2023/09/03 04:44:59;;;;;;;22.40;15.82;;;;;;;14.23;100.00;102694.19;5008817;28;20061;-63
2023/09/03 04:47:24;;;;;;;24.52;17.15;;;;;;;14.19;100.00;102696.03;5008038;28;20022;-63
2023/09/03 04:49:50;;;;;;;26.35;17.50;;;;;;;14.20;100.00;102711.03;5009836;28;20405;-66
2023/09/03 04:52:15;;;;;;;22.20;17.05;;;;;;;14.19;100.00;102711.97;5008581;28;20088;-62
2023/09/03 04:54:41;;;;;;;26.85;16.60;;;;;;;14.21;100.00;102717.22;5008799;28;20037;-66
2023/09/03 04:57:07;;;;;;;25.75;17.65;;;;;;;14.20;100.00;102721.66;5009010;28;20025;-65
2023/09/03 04:59:33;;;;;;;23.85;15.80;;;;;;;14.21;100.00;102719.88;5007947;28;20060;-68
2023/09/03 05:01:58;;;;;;;23.33;16.63;;;;;;;14.18;100.00;102719.94;5008040;28;20033;-61
2023/09/03 05:04:23;;;;;;;23.70;16.38;;;;;;;14.15;100.00;102718.22;5009116;28;20408;-60
2023/09/03 05:06:49;;;;;;;27.38;16.17;;;;;;;14.14;100.00;102717.34;5009445;28;20034;-66
2023/09/03 05:09:14;;;;;;;22.73;15.10;;;;;;;14.20;100.00;102721.66;5009868;28;20080;-66
2023/09/03 05:11:42;;;;;;;27.55;17.17;;;;;;;14.28;100.00;102726.81;5008394;28;20117;-60
2023/09/03 05:14:07;;;;;;;26.02;17.30;;;;;;;14.32;100.00;102725.84;5008172;28;20045;-61
2023/09/03 05:16:33;;;;;;;26.85;17.38;;;;;;;14.35;100.00;102733.72;5008374;28;20030;-65
2023/09/03 05:19:04;;;;;;;28.17;16.95;;;;;;;14.39;100.00;102735.41;5008535;28;20053;-66
2023/09/03 05:21:30;;;;;;;24.02;16.88;;;;;;;14.42;100.00;102737.13;5009186;28;20067;-54
2023/09/03 05:23:55;;;;;;;30.98;17.35;;;;;;;14.44;100.00;102737.09;5007779;28;20117;-67
2023/09/03 05:26:20;;;;;;;23.83;17.27;;;;;;;14.48;100.00;102742.31;5009968;28;20024;-65
2023/09/03 05:28:46;;;;;;;24.88;16.00;;;;;;;14.53;100.00;102747.53;4987940;28;20030;-64
2023/09/03 05:31:11;;;;;;;26.42;17.00;;;;;;;14.57;100.00;102746.56;4989248;28;20821;-61
2023/09/03 05:33:37;;;;;;;27.67;17.63;;;;;;;14.61;100.00;102752.69;4989958;28;20042;-64
2023/09/03 05:36:02;;;;;;;26.35;17.30;;;;;;;14.64;100.00;102753.50;5008337;28;20472;-66
2023/09/03 05:38:28;;;;;;;26.95;17.27;;;;;;;14.70;100.00;102755.16;4994725;28;20334;-63
2023/09/03 05:40:53;;;;;;;30.25;17.58;;;;;;;14.77;100.00;102758.53;4984916;28;20019;-63
2023/09/03 05:43:18;;;;;;;27.02;17.65;;;;;;;14.82;100.00;102761.13;4993760;28;20072;-62
2023/09/03 05:45:45;;;;;;;25.08;16.55;;;;;;;14.89;100.00;102758.31;5007975;28;20457;-67
2023/09/03 05:48:11;;;;;;;24.75;16.77;;;;;;;14.93;100.00;102763.56;5007501;28;20076;-61
2023/09/03 05:50:37;;;;;;;26.38;17.27;;;;;;;14.98;100.00;102764.31;5006799;28;20014;-62
2023/09/03 05:53:02;;;;;;;27.27;17.90;;;;;;;15.01;100.00;102774.88;5008129;28;20052;-63
2023/09/03 05:55:28;;;;;;;25.67;17.67;;;;;;;15.05;100.00;102779.22;5006624;28;20074;-69
2023/09/03 05:57:53;;;;;;;23.40;16.33;;;;;;;15.11;100.00;102789.69;5007521;28;20025;-58
2023/09/03 06:00:19;;;;;;;28.85;18.33;;;;;;;15.14;100.00;102789.63;5006307;28;20029;-63
2023/09/03 06:02:44;;;;;;;26.50;17.83;;;;;;;15.18;100.00;102790.47;5007059;28;20416;-66
2023/09/03 06:05:10;;;;;;;25.15;17.02;;;;;;;15.22;100.00;102796.56;5002709;28;20026;-67
2023/09/03 06:07:35;;;;;;;25.05;16.33;;;;;;;15.23;100.00;102798.31;5005489;28;20126;-63
2023/09/03 06:10:01;;;;;;;27.17;17.27;;;;;;;15.29;100.00;102798.16;5006504;28;20097;-66
2023/09/03 06:12:26;;;;;;;25.13;17.83;;;;;;;15.41;100.00;102797.88;5005593;28;20477;-64
2023/09/03 06:14:51;;;;;;;26.85;17.88;;;;;;;15.40;100.00;102805.91;5006970;28;20038;-59
2023/09/03 06:17:17;;;;;;;26.80;17.65;;;;;;;15.46;100.00;102816.38;5004296;28;20045;-65
2023/09/03 06:19:46;;;;;;;24.00;16.85;;;;;;;15.49;100.00;102820.75;5007016;28;20033;-63
2023/09/03 06:22:11;;;;;;;;;;;;;;;15.63;100.00;102828.41;5007160;28;20022;-64
2023/09/03 06:24:36;;;;;;;25.90;15.93;;;;;;;15.67;100.00;102827.41;5005504;28;19920;-56
2023/09/03 06:27:02;;;;;;;22.30;15.45;;;;;;;15.66;100.00;102829.19;4993944;28;20030;-65
2023/09/03 06:29:27;;;;;;;21.60;14.98;;;;;;;15.77;100.00;102831.59;4985582;28;20172;-64
2023/09/03 06:31:53;;;;;;;18.33;14.98;;;;;;;15.80;100.00;102833.31;4986560;28;20042;-61
2023/09/03 06:34:20;;;;;;;22.08;16.25;;;;;;;15.78;100.00;102830.69;4987489;28;20019;-66
2023/09/03 06:36:45;;;;;;;22.13;16.02;;;;;;;15.78;100.00;102828.03;4996691;28;20103;-63
2023/09/03 06:39:11;;;;;;;22.20;15.52;;;;;;;15.90;100.00;102828.66;5005667;28;20034;-65
2023/09/03 06:41:37;;;;;;;21.90;15.70;;;;;;;15.98;100.00;102828.50;4986199;28;20024;-65
2023/09/03 06:44:02;;;;;;;20.45;16.48;;;;;;;16.01;100.00;102821.31;4984914;28;20026;-67
2023/09/03 06:46:27;;;;;;;18.92;15.10;;;;;;;15.98;100.00;102825.84;4985176;28;20022;-67
2023/09/03 06:48:54;;;;;;;22.52;15.07;;;;;;;16.16;100.00;102817.38;5002073;28;20117;-67
2023/09/03 06:51:19;;;;;;;16.45;14.07;;;;;;;16.24;100.00;102819.84;4989908;28;20395;-63
2023/09/03 06:53:45;;;;;;;18.38;14.52;;;;;;;16.34;100.00;102825.78;4985711;28;20031;-66
2023/09/03 06:56:10;;;;;;;18.52;14.40;;;;;;;16.39;100.00;102823.88;4987128;28;20026;-66
2023/09/03 06:58:35;;;;;;;14.70;12.65;;;;;;;16.55;100.00;102826.09;4992814;28;20227;-62
2023/09/03 07:01:02;;;;;;;19.23;13.25;;;;;;;16.52;100.00;102823.53;5007360;28;20133;-66
2023/09/03 07:03:28;;;;;;;17.25;13.63;;;;;;;16.60;100.00;102824.22;5006138;28;20123;-62
2023/09/03 07:05:54;;;;;;;16.33;12.98;;;;;;;16.70;100.00;102827.47;5005832;28;20068;-66
2023/09/03 07:08:19;;;;;;;17.67;13.52;;;;;;;16.75;100.00;102822.91;5007528;28;20452;-58
2023/09/03 07:10:44;;;;;;;18.75;12.65;;;;;;;16.85;100.00;102828.81;5002585;28;20534;-60
2023/09/03 07:13:10;;;;;;;15.80;13.02;;;;;;;16.91;100.00;102826.00;5005654;28;20088;-65
2023/09/03 07:15:36;;;;;;;17.27;12.65;;;;;;;16.99;100.00;102831.09;5004931;28;20113;-59
2023/09/03 07:18:02;;;;;;;14.45;12.15;;;;;;;17.01;100.00;102837.22;4989059;28;20441;-66
2023/09/03 07:20:27;;;;;;;16.88;12.27;;;;;;;17.05;100.00;102840.69;4991401;28;20045;-66
2023/09/03 07:22:53;;;;;;;15.30;12.15;;;;;;;17.14;100.00;102848.44;5001895;28;20461;-61
2023/09/03 07:25:18;;;;;;;17.00;12.65;;;;;;;16.95;100.00;102852.53;4985538;28;20029;-64
2023/09/03 07:27:43;;;;;;;16.10;12.68;;;;;;;17.07;100.00;102854.88;4984781;28;20018;-66
2023/09/03 07:30:09;;;;;;;16.80;12.57;;;;;;;17.16;100.00;102862.56;4987106;28;20033;-62
2023/09/03 07:32:37;;;;;;;20.63;12.10;;;;;;;17.26;100.00;102862.31;4999499;28;20117;-64
2023/09/03 07:35:05;;;;;;;18.50;12.25;;;;;;;17.37;100.00;102867.31;5005095;28;20026;-65
2023/09/03 07:37:31;;;;;;;13.27;11.65;;;;;;;17.46;100.00;102875.00;5004931;28;20061;-66
2023/09/03 07:39:56;;;;;;;15.63;10.77;;;;;;;17.41;100.00;102872.50;5006787;28;20476;-63
2023/09/03 07:42:22;;;;;;;13.73;10.43;;;;;;;17.43;100.00;102877.78;5008888;28;20030;-67
2023/09/03 07:44:47;;;;;;;13.65;10.73;;;;;;;17.63;100.00;102877.16;5009946;28;20408;-67
2023/09/03 07:47:13;;;;;;;13.68;11.20;;;;;;;17.72;100.00;102880.44;5008147;28;20250;-65
2023/09/03 07:49:38;;;;;;;14.25;12.25;;;;;;;17.76;100.00;102879.44;5008578;28;21248;-56
2023/09/03 07:52:06;;;;;;;13.45;11.27;;;;;;;17.88;100.00;102876.38;5008662;28;20061;-66
2023/09/03 07:54:31;;;;;;;14.73;12.05;;;;;;;17.97;100.00;102874.34;5009112;28;20022;-66
2023/09/03 07:56:56;;;;;;;12.50;10.38;;;;;;;18.00;100.00;102879.56;5007087;28;20018;-64
2023/09/03 07:59:22;;;;;;;12.88;11.32;;;;;;;18.08;100.00;102874.84;5009254;28;20029;-63
2023/09/03 08:01:47;;;;;;;15.77;11.75;;;;;;;18.14;100.00;102869.34;5008150;28;20029;-60
2023/09/03 08:04:12;;;;;;;13.15;11.05;;;;;;;18.19;100.00;102874.53;5009510;28;20053;-64
2023/09/03 08:06:38;;;;;;;15.55;11.10;;;;;;;18.17;100.00;102871.91;5007826;28;20025;-59
2023/09/03 08:09:04;;;;;;;15.45;10.75;;;;;;;18.17;100.00;102863.91;5008702;28;20461;-65
2023/09/03 08:11:30;;;;;;;11.50;10.20;;;;;;;18.19;100.00;102877.19;5007409;28;20041;-64
2023/09/03 08:13:59;;;;;;;12.63;10.95;;;;;;;18.38;100.00;102885.44;5008232;28;20046;-63
2023/09/03 08:16:25;;;;;;;13.77;9.73;;;;;;;18.51;100.00;102877.88;5007724;28;20026;-60
2023/09/03 08:18:51;;;;;;;14.90;10.35;;;;;;;18.64;100.00;102886.31;4959205;28;20042;-64
2023/09/03 08:21:16;;;;;;;14.40;10.00;;;;;;;18.72;100.00;102885.19;4980852;28;20031;-62
2023/09/03 08:23:41;;;;;;;12.70;10.18;;;;;;;18.94;100.00;102879.91;4991987;28;20706;-64
2023/09/03 08:26:07;;;;;;;15.05;8.70;;;;;;;18.99;100.00;102885.94;5008568;28;20117;-66
2023/09/03 08:28:33;;;;;;;11.18;9.00;;;;;;;19.10;100.00;102874.91;4989615;28;20024;-54
2023/09/03 08:30:58;;;;;;;11.93;8.52;;;;;;;19.23;100.00;102877.13;4989324;28;20030;-65
2023/09/03 08:33:24;;;;;;;9.15;7.97;;;;;;;19.22;100.00;102870.88;4989928;28;20026;-64
2023/09/03 08:35:49;;;;;;;10.63;7.45;;;;;;;19.39;100.00;102874.72;5009934;28;20073;-65
2023/09/03 08:38:14;;;;;;;10.27;8.70;;;;;;;19.51;100.00;102876.88;5009636;28;20113;-65
2023/09/03 08:40:41;;;;;;;9.43;8.00;;;;;;;19.57;100.00;102873.13;5008213;28;20034;-60
2023/09/03 08:43:07;;;;;;;12.00;8.07;;;;;;;19.62;100.00;102871.13;5009073;28;20436;-61
2023/09/03 08:45:37;;;;;;;10.35;8.15;;;;;;;19.61;100.00;102877.41;5008445;28;20472;-67
2023/09/03 08:48:02;;;;;;;9.93;7.68;;;;;;;19.69;100.00;102877.09;4998873;28;20361;-64
2023/09/03 08:50:28;;;;;;;10.02;6.75;;;;;;;19.89;100.00;102876.28;4989191;28;20069;-65
2023/09/03 08:52:54;;;;;;;14.02;5.72;;;;;;;19.97;100.00;102867.94;4987357;28;20034;-63
2023/09/03 08:55:20;;;;;;;7.95;6.35;;;;;;;20.05;100.00;102865.81;4987528;28;20014;-62
2023/09/03 08:57:45;;;;;;;14.63;6.05;;;;;;;20.17;100.00;102875.13;5008722;28;20045;-66
2023/09/03 09:00:11;;;;;;;8.40;5.25;;;;;;;20.31;100.00;102876.34;4990347;28;20424;-62
2023/09/03 09:02:37;;;;;;;7.97;5.65;;;;;;;20.42;100.00;102867.88;4985854;28;20033;-63
2023/09/03 09:05:05;;;;;;;8.93;5.30;;;;;;;20.57;100.00;102866.31;4989339;28;20033;-59
2023/09/03 09:07:30;;;;;;;7.18;4.80;;;;;;;20.69;100.00;102873.81;4997254;28;20036;-57
2023/09/03 09:09:58;;;;;;;6.97;4.75;;;;;;;20.92;100.00;102873.75;5000476;28;20018;-66
2023/09/03 09:12:44;;;;;;;7.97;5.27;;;;;;;20.89;100.00;102877.38;4986441;28;20062;-64
2023/09/03 09:15:09;;;;;;;7.18;5.20;;;;;;;20.86;100.00;102877.50;4987969;28;20310;-66
2023/09/03 09:17:39;;;;;;;9.65;4.93;;;;;;;20.95;100.00;102881.66;4994228;28;20061;-66
2023/09/03 09:20:05;;;;;;;8.48;5.20;;;;;;;21.05;100.00;102882.06;5006867;28;20121;-65
2023/09/03 09:22:31;;;;;;;8.13;4.53;;;;;;;21.10;100.00;102876.50;5008504;28;20037;-65
2023/09/03 09:24:56;;;;;;;6.38;4.07;;;;;;;21.21;100.00;102872.38;5007697;28;20018;-66
2023/09/03 09:27:22;;;;;;;4.57;4.10;;;;;;;21.10;100.00;102873.81;5007749;28;20384;-67
2023/09/03 09:29:48;;;;;;;4.95;3.70;;;;;;;21.28;100.00;102872.09;4990365;28;20033;-64
2023/09/03 09:32:22;;;;;;;6.90;4.22;;;;;;;21.34;100.00;102867.28;4992352;28;20018;-66
2023/09/03 09:34:47;;;;;;;6.40;4.22;;;;;;;21.38;100.00;102873.41;4988430;28;20480;-64
2023/09/03 09:37:13;;;;;;;9.65;4.68;;;;;;;21.37;100.00;102866.28;4988590;28;20030;-66
2023/09/03 09:39:46;;;;;;;6.95;4.55;;;;;;;21.50;100.00;102871.06;5007465;28;20112;-62
2023/09/03 09:42:18;;;;;;;6.65;4.15;;;;;;;21.61;100.00;102866.03;4992304;28;20022;-66
2023/09/03 09:45:04;;;;;;;4.40;3.35;;;;;;;21.76;100.00;102864.44;5006859;28;20026;-66
2023/09/03 09:47:30;;;;;;;5.57;3.60;;;;;;;21.84;100.00;102861.38;4984769;28;20049;-67
2023/09/03 09:49:56;;;;;;;5.30;4.00;;;;;;;21.93;100.00;102863.59;4998850;28;20021;-63
2023/09/03 09:52:21;;;;;;;4.82;3.92;;;;;;;21.92;99.96;102861.88;4997415;28;20104;-67
2023/09/03 09:54:48;;;;;;;10.93;4.38;;;;;;;21.93;100.00;102858.25;4986020;28;20384;-67
2023/09/03 09:57:23;;;;;;;5.35;3.63;;;;;;;22.09;100.00;102852.06;5000440;28;20010;-65
2023/09/03 09:59:52;;;;;;;6.72;4.70;;;;;;;21.88;99.86;102854.06;4993972;28;20098;-66
2023/09/03 10:02:19;;;;;;;6.55;4.60;;;;;;;21.93;100.00;102868.97;4987012;28;20018;-66
2023/09/03 10:04:46;;;;;;;6.30;4.78;;;;;;;22.08;100.00;102867.31;4987893;28;20093;-58
2023/09/03 10:07:12;;;;;;;5.55;4.20;;;;;;;22.45;99.81;102864.53;4989110;28;20698;-68
2023/09/03 10:09:39;;;;;;;7.95;5.03;;;;;;;22.55;100.00;102872.13;5003441;28;20314;-64
2023/09/03 10:12:05;;;;;;;8.40;4.60;;;;;;;22.56;99.12;102871.16;4986790;28;20021;-65
2023/09/03 10:14:31;;;;;;;6.78;4.40;;;;;;;22.24;97.47;102871.03;5005176;28;20124;-63
2023/09/03 10:17:00;;;;;;;6.75;4.07;;;;;;;22.30;95.44;102876.94;5003144;28;20113;-66
2023/09/03 10:19:27;;;;;;;4.40;3.00;;;;;;;22.72;94.96;102874.78;5007150;28;20030;-68
2023/09/03 10:21:54;;;;;;;3.60;2.80;;;;;;;22.41;95.88;102873.72;5007594;28;20041;-66
2023/09/03 10:24:20;;;;;;;5.93;3.30;;;;;;;22.50;95.33;102868.78;5007904;28;20026;-67
2023/09/03 10:26:50;;;;;;;6.38;2.90;;;;;;;22.64;89.90;102857.34;5006138;28;20073;-62
2023/09/03 10:29:19;;;;;;;3.75;2.80;;;;;;;22.59;86.74;102857.59;5006684;28;20461;-67
2023/09/03 10:31:45;;;;;;;4.03;2.42;;;;;;;22.76;88.59;102858.50;5006418;28;20105;-66
2023/09/03 10:34:11;;;;;;;5.35;3.20;;;;;;;22.77;89.10;102857.53;5007015;28;20445;-67
2023/09/03 10:36:36;;;;;;;3.00;2.70;;;;;;;22.89;89.01;102859.56;5006865;28;20400;-65
2023/09/03 10:39:23;;;;;;;6.22;2.72;;;;;;;23.03;86.95;102863.31;5005484;28;20053;-66
2023/09/03 10:42:14;;;;;;;4.43;2.45;;;;;;;23.55;82.08;102866.75;5005859;28;20025;-68
2023/09/03 10:44:50;;;;;;;3.88;2.75;;;;;;;23.65;83.11;102864.38;5006659;28;20028;-67
2023/09/03 10:47:17;;;;;;;7.18;3.20;;;;;;;23.63;80.70;102867.16;5006026;28;20026;-66
2023/09/03 20:46:58;;;;;;;5.40;4.88;;;;;;;16.96;100.00;102798.34;5096735;27;20413;-63
2023/09/03 20:49:24;;;;;;;7.38;5.10;;;;;;;17.25;100.00;102799.31;5085648;28;20457;-67
2023/09/03 20:51:49;;;;;;;6.35;4.18;;;;;;;17.34;100.00;102804.31;5084312;28;20467;-64
2023/09/03 20:54:16;;;;;;;5.13;4.63;;;;;;;17.38;100.00;102806.00;5084362;28;20099;-69
2023/09/03 20:56:42;;;;;;;5.75;4.95;;;;;;;17.41;100.00;102807.69;5084467;28;20050;-61
2023/09/03 20:59:07;;;;;;;5.38;4.88;;;;;;;17.42;100.00;102804.97;5084818;28;20031;-65
2023/09/03 21:01:33;;;;;;;5.32;4.78;;;;;;;17.43;100.00;102801.38;5084334;28;20016;-61